APRS [IN73DM], 0 Stunde(n), DL3EL [23:18:04, 0s].
EB1TK 43.32.22N 005.42.32WIN73DM 1.835km N21:10:18ZEB1TK-6>CQ,TCPIP*,qAC,T2NORWAY:SatGate - APRS Satellite Traffic and Reporting System (ASTARS)(3EB1TK-6)
Wind 232°/003kn, Böen bis 004kn, Temp 12.22c, Regen 0.0mm, letzte 24h 0.0mm, seit 0h 0.0mm, Baro 1026.4h, Hum: 93%(2EB1TK-13)
EA1FFA 43.31.53N 005.40.64WIN73DM 2.554km 78°ENE21:01:56ZMMDVM MMDVM HS Hat 438.8000/438.8000 CC1
EA1IEJ 43.31.81N 005.40.25WIN73DM 3.201km 71°ENE21:01:19ZMMDVM MMDVM HS Hat 438.8500/438.8500 CC6
EA1DZR 43.31.48N 005.40.00WIN73EM 3.384km 83°E21:02:42ZMMDVM DVS 434.3500/434.3500 CC1
LEEL 43.32.98N 005.41.71WIN73DN 3.375km 18°NNE21:00:08ZHelipuerto de El Musel: LEAS 262000Z VRB02KT CAVOK 13/12 Q1023 NOSIG=
ED1ZAE 43.27.97N 005.40.54WIN73DL 6.597km 157°SSE21:01:59ZWIDE3-3 ESAS3-3 IN73DL WWW.EA1URG.ORG(3ED1ZAE-3)
2m Voice 145.5875 -0.600 Mhz(2ED1ZAE-C)
ED1ZAS 43.27.52N 005.40.17WIN73DL 7.561km 156°SSE21:03:01ZRD985 438.2250/430.6250 CC1
EB1GEM 43.30.00N 005.36.07WIN73EM 8.938km 105°ESE21:06:16ZWX3in1Plus2.0 U=13.3V,T=??.?C/??.?F(3EB1GEM-3)
EA1FDZ 43.30.00N 005.35.99WIN73EM 9.033km 105°ESE21:00:58ZMMDVM MMDVM HS Dual Hat 438.4375/430.8375 CC1
EA1IPU 43.26.21N 005.46.62WIN73CK 10.841km 211°SSW21:00:13ZMMDVM MMDVM HS Hat 439.8000/439.8000 CC1
LEGM 43.26.15N 005.49.84WIN73CK 13.651km 226°SW21:00:04ZHelipuerto de La Morgal: LEAS 262000Z VRB02KT CAVOK 13/12 Q1023 NOSIG=
LEMR 43.25.83N 005.49.60WIN73CK 13.865km 224°SW21:00:08ZAerodromo de la Morgal: LEAS 262000Z VRB02KT CAVOK 13/12 Q1023 NOSIG=
EA1ABW 43.24.77N 005.47.77WIN73CJ 13.932km 211°SSW21:00:17ZMMDVM MMDVM HS Hat 439.8250/439.8250 CC1
EA1AHA 43.32.72N 005.54.38WIN73BN 16.196km 280°W21:16:11ZWind 180°/001kn, Böen bis 002kn, Temp 13.33c, Regen 0.0mm, letzte 24h 0.0mm, seit 0h 0.0mm, Baro 1024.9h, Hum: 87%(3EA1AHA-13)
LEHU 43.22.63N 005.49.57WIN73CJ 18.595km 211°SSW21:00:04ZHelipuerto del HUCA: LEAS 262000Z VRB02KT CAVOK 13/12 Q1023 NOSIG=
EA1FLQ 43.22.00N 005.36.35WIN73EI 19.022km 154°SSE21:02:18ZMMDVM DVMega 439.9750/439.9750 CC1
ED1ZAY 43.29.47N 005.56.54WIN73AL 19.167km 260°W21:02:57ZRD625 438.3000/430.7000 CC1
ED1ZAU 43.23.04N 005.52.75WIN73BJ 20.539km 222°SW21:03:01ZRD625 438.5000/430.9000 CC1
EA1YR 43.22.09N 005.51.86WIN73BI 21.126km 217°SW21:02:42ZMMDVM DVS 434.3500/434.3500 CC1
33D00 43.21.63N 005.51.13WIN73BI 21.272km 213°SSW21:01:43Z33-D-00 Protección Civil REMER / Delegación del Gobierno en Asturias
EA1DHE 43.33.98N 005.58.57WIN73AN 22.176km 283°WNW21:02:22ZMMDVM DVS 434.3500/434.3500 CC1
EA1HWD 43.28.96N 005.26.30WIN73GL 22.180km 101°E21:00:46Z144.575FM Local frecuency VHF. 434.2500/434.2500 CC1
EA1HJA 43.21.47N 005.52.09WIN73BI 22.237km 216°SW20:59:31Z IN73FL WX3IN1+ 2.0 - V=13.2V,TX TEMP=28.8C(3EA1HJA-2)
IN73FL WX3IN1+ 2.0 - V=14.0V,TX TEMP=43.8C(2EA1HJA)
EA1L 43.20.37N 005.51.13WIN73BI 23.248km 210°SSW21:10:06Zea1l@ure.es V=13.8V,T=??.?C
Wind 055°/000kn, Böen bis 000kn, Temp 14.44c, Regen 0.0mm, letzte 24h 0.3mm, seit 0h 0.3mm, Baro 1021.8h, Hum: 96%(2EA1L-13)
EA1HWX 43.19.87N 005.50.85WIN73BH 23.875km 208°SSW21:00:34ZMMDVM MMDVM HS Dual Hat 439.8250/430.4000 CC11
EA1AQK 43.16.49N 005.35.99WIN73EG 28.694km 162°SSE20:30:53ZMMDVM MMDVM HS Hat 439.8500/439.8500 CC1
EB1DGC 43.12.60N 005.45.59WIN73CF 34.806km 187°S21:01:33ZMMDVM MMDVM HS Hat 433.4500/433.4500 CC1
EA1JBU 43.30.80N 005.16.20WIN73IM 35.333km 91°E20:45:04ZEA1JBU(3EA1JBU-2)
EA1JBE 43.30.90N 005.16.15WIN73IM 35.409km 91°E21:15:04ZEA1JBU(3EA1JBE-13)
MAIN QTH http://qrz.com/db/ea1jbe(2EA1JBE-1)
EA1JBL 43.12.28N 005.47.42WIN73CE 35.751km 191°S21:02:20ZMMDVM DVMega 435.3000/435.3000 CC1
EA1HWA 43.12.00N 005.47.40WIN73CE 36.272km 191°S21:00:54ZMMDVM MMDVM HS Hat 433.4500/433.4500 CC1
EA1RCG 43.09.45N 005.49.78WIN73CD 41.551km 194°SSW21:01:06ZGRUPO RADIO GALENA (GRG) 433.4500/433.4500 CC1
ED1ZAD 43.07.90N 005.38.52WIN73ED 43.574km 173°S21:18:03ZED1ZAD-3>BEACON,TCPIP*,qAC,T2SPAIN:ED1ZAD -WX3in1+1.0 FW1.46(3ED1ZAD-3)
EC1KV 43.34.01N 006.16.01WIN63UN 45.300km 277°W20:47:40Z VOLT.=13.5 V - TEMP.=??.? C(3EC1KV-1)

aprs.pl 5.0.011w DL3EL © 2006-2021 [1054769]